RPVD

Sibulan Airport

Dumaguete City, Philippines
TAF RPVD 181700Z 1818/1918 22006KT 9999 FEW015 BKN220 TEMPO 1818/1824 00000KT FEW015 BKN080
Issued Valid From Valid To
Jul-18 @ 17:00 UTC
(5 hours ago)
Jul-18 @ 18:00 UTC
(4 hours ago)
Jul-19 @ 18:00 UTC
(in 20 hours)
Jul-18 @ 18:00 to Jul-19 @ 18:00
TAF RPVD 181700Z 1818/1918 22006KT 9999 FEW015 BKN220
Wind Visibility Clouds
220° at 6 knots 10,000+ meters
  • Few at 1,500' AGL
  • Broken at 22,000' AGL
Temporary Jul-18 @ 18:00 to Jul-19 @ 00:00
TEMPO 1818/1824 00000KT FEW015 BKN080
Clouds
  • Few at 1,500' AGL
  • Broken at 8,000' AGL
TAF RPVD 181700Z 1818/1918 22006KT 9999 FEW015 BKN220 TEMPO 1818/1824 00000KT FEW015 BKN080
Issued Jul-18 @ 17:00 UTC
(5 hours ago)
Valid From Jul-18 @ 18:00 UTC
(4 hours ago)
Valid To Jul-19 @ 18:00 UTC
(in 20 hours)
Jul-18 @ 18:00 - Jul-19 @ 18:00
Wind Visibility
220° at 6 knots 10,000+ meters
Clouds
  • Few at 1,500' AGL
  • Broken at 22,000' AGL
Temporary Jul-18 @ 18:00 - Jul-19 @ 00:00
Clouds
  • Few at 1,500' AGL
  • Broken at 8,000' AGL